sensor_id;sensor_type;location;lat;lon;timestamp;pressure;altitude;pressure_sealevel;temperature;humidity
36600;BME280;35385;55.668;37.508;2023-02-19T00:00:37;97703.88;;;-6.62;100.00
36600;BME280;35385;55.668;37.508;2023-02-19T00:01:42;97708.31;;;-6.64;100.00
36600;BME280;35385;55.668;37.508;2023-02-19T00:02:46;97691.97;;;-6.66;100.00
36600;BME280;35385;55.668;37.508;2023-02-19T00:03:49;97707.75;;;-6.52;100.00
36600;BME280;35385;55.668;37.508;2023-02-19T00:04:51;97647.78;;;-6.85;100.00
36600;BME280;35385;55.668;37.508;2023-02-19T00:05:51;97692.13;;;-6.51;100.00
36600;BME280;35385;55.668;37.508;2023-02-19T00:06:52;97689.19;;;-6.63;100.00
36600;BME280;35385;55.668;37.508;2023-02-19T00:07:53;97689.06;;;-6.60;100.00
36600;BME280;35385;55.668;37.508;2023-02-19T00:08:54;97704.03;;;-6.65;100.00
36600;BME280;35385;55.668;37.508;2023-02-19T00:09:54;97707.31;;;-6.62;100.00
36600;BME280;35385;55.668;37.508;2023-02-19T00:11:08;97653.34;;;-6.93;100.00
36600;BME280;35385;55.668;37.508;2023-02-19T00:12:10;97687.81;;;-6.70;100.00
36600;BME280;35385;55.668;37.508;2023-02-19T00:13:11;97695.56;;;-6.50;100.00
36600;BME280;35385;55.668;37.508;2023-02-19T00:14:17;97630.16;;;-6.97;100.00
36600;BME280;35385;55.668;37.508;2023-02-19T00:15:18;97698.34;;;-6.55;100.00
36600;BME280;35385;55.668;37.508;2023-02-19T00:16:26;97686.69;;;-6.65;100.00
36600;BME280;35385;55.668;37.508;2023-02-19T00:17:30;97666.31;;;-6.74;100.00
36600;BME280;35385;55.668;37.508;2023-02-19T00:18:30;97692.38;;;-6.57;100.00
36600;BME280;35385;55.668;37.508;2023-02-19T00:19:31;97687.97;;;-6.55;100.00
36600;BME280;35385;55.668;37.508;2023-02-19T00:20:31;97688.25;;;-6.42;100.00
36600;BME280;35385;55.668;37.508;2023-02-19T00:21:32;97624.69;;;-6.91;100.00
36600;BME280;35385;55.668;37.508;2023-02-19T00:22:33;97686.41;;;-6.59;100.00
36600;BME280;35385;55.668;37.508;2023-02-19T00:23:34;97694.78;;;-6.52;100.00
36600;BME280;35385;55.668;37.508;2023-02-19T00:24:34;97692.41;;;-6.38;100.00
36600;BME280;35385;55.668;37.508;2023-02-19T00:25:36;97621.69;;;-6.63;100.00
36600;BME280;35385;55.668;37.508;2023-02-19T00:26:38;97684.28;;;-6.32;100.00
36600;BME280;35385;55.668;37.508;2023-02-19T00:27:40;97672.06;;;-6.49;100.00
36600;BME280;35385;55.668;37.508;2023-02-19T00:28:40;97682.41;;;-6.47;100.00
36600;BME280;35385;55.668;37.508;2023-02-19T00:29:41;97678.63;;;-6.59;100.00
36600;BME280;35385;55.668;37.508;2023-02-19T00:30:41;97657.50;;;-6.70;100.00
36600;BME280;35385;55.668;37.508;2023-02-19T00:31:42;97681.22;;;-6.59;100.00
36600;BME280;35385;55.668;37.508;2023-02-19T00:32:48;97676.78;;;-6.57;100.00
36600;BME280;35385;55.668;37.508;2023-02-19T00:33:51;97684.09;;;-6.46;100.00
36600;BME280;35385;55.668;37.508;2023-02-19T00:34:52;97675.53;;;-6.48;100.00
36600;BME280;35385;55.668;37.508;2023-02-19T00:35:52;97688.94;;;-6.57;100.00
36600;BME280;35385;55.668;37.508;2023-02-19T00:36:53;97670.78;;;-6.78;100.00
36600;BME280;35385;55.668;37.508;2023-02-19T00:37:53;97676.94;;;-6.79;100.00
36600;BME280;35385;55.668;37.508;2023-02-19T00:38:54;97621.25;;;-7.10;100.00
36600;BME280;35385;55.668;37.508;2023-02-19T00:39:54;97667.28;;;-6.77;100.00
36600;BME280;35385;55.668;37.508;2023-02-19T00:40:55;97677.00;;;-6.80;100.00
36600;BME280;35385;55.668;37.508;2023-02-19T00:41:57;97680.44;;;-6.80;100.00
36600;BME280;35385;55.668;37.508;2023-02-19T00:43:00;97669.41;;;-6.85;100.00
36600;BME280;35385;55.668;37.508;2023-02-19T00:44:05;97660.72;;;-6.84;100.00
36600;BME280;35385;55.668;37.508;2023-02-19T00:45:06;97677.41;;;-6.70;100.00
36600;BME280;35385;55.668;37.508;2023-02-19T00:46:07;97667.03;;;-6.70;100.00
36600;BME280;35385;55.668;37.508;2023-02-19T00:47:07;97663.66;;;-6.72;100.00
36600;BME280;35385;55.668;37.508;2023-02-19T00:48:08;97615.34;;;-7.14;100.00
36600;BME280;35385;55.668;37.508;2023-02-19T00:49:14;97659.00;;;-6.85;100.00
36600;BME280;35385;55.668;37.508;2023-02-19T00:50:15;97591.56;;;-7.24;100.00
36600;BME280;35385;55.668;37.508;2023-02-19T00:51:16;97656.34;;;-6.83;100.00
36600;BME280;35385;55.668;37.508;2023-02-19T00:52:16;97651.88;;;-6.80;100.00
36600;BME280;35385;55.668;37.508;2023-02-19T00:53:17;97650.25;;;-6.82;100.00
36600;BME280;35385;55.668;37.508;2023-02-19T00:54:18;97533.69;;;-7.44;100.00
36600;BME280;35385;55.668;37.508;2023-02-19T00:55:19;97635.78;;;-6.88;100.00
36600;BME280;35385;55.668;37.508;2023-02-19T00:56:19;97656.78;;;-6.73;100.00
36600;BME280;35385;55.668;37.508;2023-02-19T00:57:20;97655.38;;;-6.81;100.00
36600;BME280;35385;55.668;37.508;2023-02-19T00:58:20;97648.38;;;-6.79;100.00
36600;BME280;35385;55.668;37.508;2023-02-19T00:59:21;97628.84;;;-6.87;100.00
36600;BME280;35385;55.668;37.508;2023-02-19T01:00:21;97620.75;;;-7.00;100.00
36600;BME280;35385;55.668;37.508;2023-02-19T01:01:22;97560.38;;;-7.22;100.00
36600;BME280;35385;55.668;37.508;2023-02-19T01:02:23;97645.91;;;-6.82;100.00
36600;BME280;35385;55.668;37.508;2023-02-19T01:03:23;97621.00;;;-6.86;100.00
36600;BME280;35385;55.668;37.508;2023-02-19T01:04:24;97627.88;;;-6.85;100.00
36600;BME280;35385;55.668;37.508;2023-02-19T01:05:25;97642.16;;;-6.76;100.00
36600;BME280;35385;55.668;37.508;2023-02-19T01:06:25;97637.81;;;-6.75;100.00
36600;BME280;35385;55.668;37.508;2023-02-19T01:07:26;97625.41;;;-6.88;100.00
36600;BME280;35385;55.668;37.508;2023-02-19T01:08:26;97618.88;;;-6.96;100.00
36600;BME280;35385;55.668;37.508;2023-02-19T01:09:27;97636.63;;;-6.87;100.00
36600;BME280;35385;55.668;37.508;2023-02-19T01:10:27;97634.25;;;-6.73;100.00
36600;BME280;35385;55.668;37.508;2023-02-19T01:11:28;97629.78;;;-6.69;100.00
36600;BME280;35385;55.668;37.508;2023-02-19T01:12:29;97575.16;;;-7.05;100.00
36600;BME280;35385;55.668;37.508;2023-02-19T01:13:31;97635.03;;;-6.71;100.00
36600;BME280;35385;55.668;37.508;2023-02-19T01:14:32;97618.88;;;-6.78;100.00
36600;BME280;35385;55.668;37.508;2023-02-19T01:15:33;97568.63;;;-7.14;100.00
36600;BME280;35385;55.668;37.508;2023-02-19T01:16:34;97637.81;;;-6.75;100.00
36600;BME280;35385;55.668;37.508;2023-02-19T01:17:35;97627.44;;;-6.75;100.00
36600;BME280;35385;55.668;37.508;2023-02-19T01:18:35;97634.75;;;-6.65;100.00
36600;BME280;35385;55.668;37.508;2023-02-19T01:19:36;97626.41;;;-6.71;100.00
36600;BME280;35385;55.668;37.508;2023-02-19T01:20:41;97619.16;;;-6.84;100.00
36600;BME280;35385;55.668;37.508;2023-02-19T01:21:42;97616.44;;;-6.81;100.00
36600;BME280;35385;55.668;37.508;2023-02-19T01:22:43;97630.69;;;-6.70;100.00
36600;BME280;35385;55.668;37.508;2023-02-19T01:23:44;97637.03;;;-6.78;100.00
36600;BME280;35385;55.668;37.508;2023-02-19T01:24:44;97609.84;;;-6.69;100.00
36600;BME280;35385;55.668;37.508;2023-02-19T01:25:45;97600.09;;;-6.83;100.00
36600;BME280;35385;55.668;37.508;2023-02-19T01:26:45;97621.41;;;-6.76;100.00
36600;BME280;35385;55.668;37.508;2023-02-19T01:27:46;97602.16;;;-6.91;100.00
36600;BME280;35385;55.668;37.508;2023-02-19T01:28:47;97605.84;;;-6.95;100.00
36600;BME280;35385;55.668;37.508;2023-02-19T01:29:48;97611.72;;;-6.91;100.00
36600;BME280;35385;55.668;37.508;2023-02-19T01:30:48;97598.25;;;-6.99;100.00
36600;BME280;35385;55.668;37.508;2023-02-19T01:31:49;97619.00;;;-6.99;100.00
36600;BME280;35385;55.668;37.508;2023-02-19T01:32:49;97614.78;;;-7.02;100.00
36600;BME280;35385;55.668;37.508;2023-02-19T01:33:52;97583.63;;;-7.21;100.00
36600;BME280;35385;55.668;37.508;2023-02-19T01:34:53;97594.09;;;-7.22;100.00
36600;BME280;35385;55.668;37.508;2023-02-19T01:35:54;97607.53;;;-6.94;100.00
36600;BME280;35385;55.668;37.508;2023-02-19T01:36:55;97602.81;;;-6.86;100.00
36600;BME280;35385;55.668;37.508;2023-02-19T01:37:55;97549.22;;;-7.24;100.00
36600;BME280;35385;55.668;37.508;2023-02-19T01:38:59;97611.03;;;-6.95;100.00
36600;BME280;35385;55.668;37.508;2023-02-19T01:39:59;97607.22;;;-6.88;100.00
36600;BME280;35385;55.668;37.508;2023-02-19T01:41:02;97542.97;;;-7.20;100.00
36600;BME280;35385;55.668;37.508;2023-02-19T01:42:04;97600.91;;;-7.01;100.00
36600;BME280;35385;55.668;37.508;2023-02-19T01:43:18;97555.19;;;-7.22;100.00
36600;BME280;35385;55.668;37.508;2023-02-19T01:45:24;97616.91;;;-6.91;100.00
36600;BME280;35385;55.668;37.508;2023-02-19T01:46:30;97612.78;;;-6.95;100.00
36600;BME280;35385;55.668;37.508;2023-02-19T01:47:31;97559.44;;;-7.21;100.00
36600;BME280;35385;55.668;37.508;2023-02-19T01:48:36;97617.47;;;-6.85;100.00
36600;BME280;35385;55.668;37.508;2023-02-19T01:49:42;97601.78;;;-6.82;100.00
36600;BME280;35385;55.668;37.508;2023-02-19T01:51:11;97606.91;;;-6.80;100.00
36600;BME280;35385;55.668;37.508;2023-02-19T01:52:26;97535.41;;;-7.25;100.00
36600;BME280;35385;55.668;37.508;2023-02-19T01:53:33;97621.00;;;-6.86;100.00
36600;BME280;35385;55.668;37.508;2023-02-19T01:54:37;97609.97;;;-6.91;100.00
36600;BME280;35385;55.668;37.508;2023-02-19T01:55:41;97608.50;;;-6.96;100.00
36600;BME280;35385;55.668;37.508;2023-02-19T01:56:45;97541.69;;;-7.30;100.00
36600;BME280;35385;55.668;37.508;2023-02-19T01:57:47;97605.84;;;-6.95;100.00
36600;BME280;35385;55.668;37.508;2023-02-19T01:58:49;97599.78;;;-7.14;100.00
36600;BME280;35385;55.668;37.508;2023-02-19T01:59:52;97610.63;;;-7.06;100.00
36600;BME280;35385;55.668;37.508;2023-02-19T02:00:54;97603.31;;;-6.96;100.00
36600;BME280;35385;55.668;37.508;2023-02-19T02:01:55;97543.50;;;-7.32;100.00
36600;BME280;35385;55.668;37.508;2023-02-19T02:02:56;97611.56;;;-6.88;100.00
36600;BME280;35385;55.668;37.508;2023-02-19T02:03:57;97598.28;;;-6.81;100.00
36600;BME280;35385;55.668;37.508;2023-02-19T02:04:59;97563.19;;;-7.08;100.00
36600;BME280;35385;55.668;37.508;2023-02-19T02:06:05;97606.72;;;-6.77;100.00
36600;BME280;35385;55.668;37.508;2023-02-19T02:07:07;97597.13;;;-6.75;100.00
36600;BME280;35385;55.668;37.508;2023-02-19T02:08:29;97608.78;;;-6.84;100.00
36600;BME280;35385;55.668;37.508;2023-02-19T02:09:49;97608.44;;;-6.95;100.00
36600;BME280;35385;55.668;37.508;2023-02-19T02:11:08;97602.34;;;-6.94;100.00
36600;BME280;35385;55.668;37.508;2023-02-19T02:12:09;97544.28;;;-7.30;100.00
36600;BME280;35385;55.668;37.508;2023-02-19T02:13:12;97617.63;;;-6.88;100.00
36600;BME280;35385;55.668;37.508;2023-02-19T02:14:12;97613.97;;;-6.84;100.00
36600;BME280;35385;55.668;37.508;2023-02-19T02:15:14;97586.19;;;-7.00;100.00
36600;BME280;35385;55.668;37.508;2023-02-19T02:16:29;97610.09;;;-6.75;100.00
36600;BME280;35385;55.668;37.508;2023-02-19T02:20:02;97612.63;;;-6.73;100.00
36600;BME280;35385;55.668;37.508;2023-02-19T02:22:36;97603.28;;;-6.59;100.00
36600;BME280;35385;55.668;37.508;2023-02-19T02:26:41;97596.28;;;-6.57;100.00
36600;BME280;35385;55.668;37.508;2023-02-19T02:29:45;97609.50;;;-6.80;100.00
36600;BME280;35385;55.668;37.508;2023-02-19T02:30:55;97575.81;;;-6.82;100.00
36600;BME280;35385;55.668;37.508;2023-02-19T02:32:02;97601.69;;;-6.61;100.00
36600;BME280;35385;55.668;37.508;2023-02-19T02:33:35;97605.69;;;-6.54;100.00
36600;BME280;35385;55.668;37.508;2023-02-19T02:35:16;97563.03;;;-7.05;100.00
36600;BME280;35385;55.668;37.508;2023-02-19T02:36:24;97598.41;;;-6.84;100.00
36600;BME280;35385;55.668;37.508;2023-02-19T02:37:29;97601.63;;;-6.79;100.00
36600;BME280;35385;55.668;37.508;2023-02-19T02:38:36;97527.25;;;-7.17;100.00
36600;BME280;35385;55.668;37.508;2023-02-19T02:39:40;97602.56;;;-6.80;100.00
36600;BME280;35385;55.668;37.508;2023-02-19T02:40:42;97554.31;;;-7.04;100.00
36600;BME280;35385;55.668;37.508;2023-02-19T02:41:48;97537.09;;;-7.24;100.00
36600;BME280;35385;55.668;37.508;2023-02-19T02:43:09;97585.91;;;-6.94;100.00
36600;BME280;35385;55.668;37.508;2023-02-19T02:44:11;97591.78;;;-6.91;100.00
36600;BME280;35385;55.668;37.508;2023-02-19T02:46:37;97572.72;;;-6.90;100.00
36600;BME280;35385;55.668;37.508;2023-02-19T02:47:52;97580.63;;;-6.74;100.00
36600;BME280;35385;55.668;37.508;2023-02-19T02:49:02;97562.75;;;-6.80;100.00
36600;BME280;35385;55.668;37.508;2023-02-19T02:50:04;97584.91;;;-6.73;100.00
36600;BME280;35385;55.668;37.508;2023-02-19T02:52:06;97563.59;;;-6.98;100.00
36600;BME280;35385;55.668;37.508;2023-02-19T02:54:06;97570.59;;;-7.00;100.00
36600;BME280;35385;55.668;37.508;2023-02-19T02:55:30;97587.16;;;-7.03;100.00
36600;BME280;35385;55.668;37.508;2023-02-19T02:56:35;97567.09;;;-7.18;100.00
36600;BME280;35385;55.668;37.508;2023-02-19T02:57:35;97592.69;;;-6.92;100.00
36600;BME280;35385;55.668;37.508;2023-02-19T02:58:36;97586.91;;;-6.97;100.00
36600;BME280;35385;55.668;37.508;2023-02-19T02:59:38;97577.91;;;-6.90;100.00
36600;BME280;35385;55.668;37.508;2023-02-19T03:00:42;97512.72;;;-7.21;100.00
36600;BME280;35385;55.668;37.508;2023-02-19T03:02:05;97513.81;;;-7.25;100.00
36600;BME280;35385;55.668;37.508;2023-02-19T03:03:20;97581.72;;;-6.78;100.00
36600;BME280;35385;55.668;37.508;2023-02-19T03:05:31;97568.56;;;-6.75;100.00
36600;BME280;35385;55.668;37.508;2023-02-19T03:06:51;97572.00;;;-6.74;100.00
36600;BME280;35385;55.668;37.508;2023-02-19T03:09:18;97580.78;;;-6.58;100.00
36600;BME280;35385;55.668;37.508;2023-02-19T03:11:16;97587.50;;;-6.54;100.00
36600;BME280;35385;55.668;37.508;2023-02-19T03:12:29;97577.19;;;-6.74;100.00
36600;BME280;35385;55.668;37.508;2023-02-19T03:14:30;97587.25;;;-6.67;100.00
36600;BME280;35385;55.668;37.508;2023-02-19T03:15:55;97515.91;;;-7.15;100.00
36600;BME280;35385;55.668;37.508;2023-02-19T03:17:21;97577.00;;;-6.70;100.00
36600;BME280;35385;55.668;37.508;2023-02-19T03:18:47;97573.13;;;-6.61;100.00
36600;BME280;35385;55.668;37.508;2023-02-19T03:20:11;97558.88;;;-6.71;100.00
36600;BME280;35385;55.668;37.508;2023-02-19T03:21:14;97568.09;;;-6.83;100.00
36600;BME280;35385;55.668;37.508;2023-02-19T03:22:21;97572.03;;;-6.93;100.00
36600;BME280;35385;55.668;37.508;2023-02-19T03:23:26;97569.00;;;-6.84;100.00
36600;BME280;35385;55.668;37.508;2023-02-19T03:24:58;97494.09;;;-7.29;100.00
36600;BME280;35385;55.668;37.508;2023-02-19T03:26:19;97563.03;;;-7.05;100.00
36600;BME280;35385;55.668;37.508;2023-02-19T03:27:21;97571.03;;;-6.91;100.00
36600;BME280;35385;55.668;37.508;2023-02-19T03:28:27;97544.53;;;-6.97;100.00
36600;BME280;35385;55.668;37.508;2023-02-19T03:29:49;97563.75;;;-6.83;100.00
36600;BME280;35385;55.668;37.508;2023-02-19T03:30:52;97541.56;;;-6.90;100.00
36600;BME280;35385;55.668;37.508;2023-02-19T03:32:01;97568.63;;;-6.77;100.00
36600;BME280;35385;55.668;37.508;2023-02-19T03:33:09;97572.00;;;-6.74;100.00
36600;BME280;35385;55.668;37.508;2023-02-19T03:34:19;97517.16;;;-7.04;100.00
36600;BME280;35385;55.668;37.508;2023-02-19T03:35:29;97566.94;;;-6.78;100.00
36600;BME280;35385;55.668;37.508;2023-02-19T03:36:38;97559.25;;;-6.79;100.00
36600;BME280;35385;55.668;37.508;2023-02-19T03:37:51;97561.75;;;-6.78;100.00
36600;BME280;35385;55.668;37.508;2023-02-19T03:39:04;97557.78;;;-6.85;100.00
36600;BME280;35385;55.668;37.508;2023-02-19T03:40:06;97549.00;;;-7.01;100.00
36600;BME280;35385;55.668;37.508;2023-02-19T03:41:34;97550.25;;;-6.91;100.00
36600;BME280;35385;55.668;37.508;2023-02-19T03:45:24;97549.00;;;-6.82;100.00
36600;BME280;35385;55.668;37.508;2023-02-19T03:47:32;97557.41;;;-6.77;100.00
36600;BME280;35385;55.668;37.508;2023-02-19T03:49:28;97556.56;;;-6.78;100.00
36600;BME280;35385;55.668;37.508;2023-02-19T03:52:40;97558.13;;;-6.73;100.00
36600;BME280;35385;55.668;37.508;2023-02-19T03:54:01;97555.66;;;-6.77;100.00
36600;BME280;35385;55.668;37.508;2023-02-19T03:55:42;97551.94;;;-6.90;100.00
36600;BME280;35385;55.668;37.508;2023-02-19T03:57:06;97548.03;;;-6.80;100.00
36600;BME280;35385;55.668;37.508;2023-02-19T03:58:16;97545.50;;;-6.81;100.00
36600;BME280;35385;55.668;37.508;2023-02-19T03:59:30;97498.16;;;-7.05;100.00
36600;BME280;35385;55.668;37.508;2023-02-19T04:01:52;97547.38;;;-6.66;100.00
36600;BME280;35385;55.668;37.508;2023-02-19T04:04:11;97535.31;;;-6.86;100.00
36600;BME280;35385;55.668;37.508;2023-02-19T04:05:14;97536.81;;;-6.80;100.00
36600;BME280;35385;55.668;37.508;2023-02-19T04:06:19;97552.72;;;-6.88;100.00
36600;BME280;35385;55.668;37.508;2023-02-19T04:07:22;97523.91;;;-7.00;100.00
36600;BME280;35385;55.668;37.508;2023-02-19T04:08:25;97554.75;;;-6.75;100.00
36600;BME280;35385;55.668;37.508;2023-02-19T04:09:31;97543.16;;;-6.68;100.00
36600;BME280;35385;55.668;37.508;2023-02-19T04:10:34;97553.34;;;-6.83;100.00
36600;BME280;35385;55.668;37.508;2023-02-19T04:11:37;97557.34;;;-6.75;100.00
36600;BME280;35385;55.668;37.508;2023-02-19T04:12:40;97489.25;;;-7.18;100.00
36600;BME280;35385;55.668;37.508;2023-02-19T04:13:49;97480.50;;;-7.16;100.00
36600;BME280;35385;55.668;37.508;2023-02-19T04:15:04;97483.44;;;-7.23;100.00
36600;BME280;35385;55.668;37.508;2023-02-19T04:16:08;97464.19;;;-7.36;100.00
36600;BME280;35385;55.668;37.508;2023-02-19T04:17:19;97493.66;;;-7.20;100.00
36600;BME280;35385;55.668;37.508;2023-02-19T04:18:24;97547.53;;;-6.88;100.00
36600;BME280;35385;55.668;37.508;2023-02-19T04:19:28;97531.47;;;-6.96;100.00
36600;BME280;35385;55.668;37.508;2023-02-19T04:20:33;97536.53;;;-6.93;100.00
36600;BME280;35385;55.668;37.508;2023-02-19T04:21:36;97522.28;;;-7.03;100.00
36600;BME280;35385;55.668;37.508;2023-02-19T04:22:39;97528.38;;;-7.04;100.00
36600;BME280;35385;55.668;37.508;2023-02-19T04:23:40;97533.16;;;-6.95;100.00
36600;BME280;35385;55.668;37.508;2023-02-19T04:24:43;97534.53;;;-6.88;100.00
36600;BME280;35385;55.668;37.508;2023-02-19T04:25:49;97533.16;;;-6.95;100.00
36600;BME280;35385;55.668;37.508;2023-02-19T04:26:53;97536.03;;;-7.01;100.00
36600;BME280;35385;55.668;37.508;2023-02-19T04:27:54;97524.41;;;-7.11;100.00
36600;BME280;35385;55.668;37.508;2023-02-19T04:28:55;97497.09;;;-7.20;100.00
36600;BME280;35385;55.668;37.508;2023-02-19T04:29:56;97538.63;;;-6.82;100.00
36600;BME280;35385;55.668;37.508;2023-02-19T04:30:57;97532.22;;;-6.75;100.00
36600;BME280;35385;55.668;37.508;2023-02-19T04:31:57;97517.34;;;-6.90;100.00
36600;BME280;35385;55.668;37.508;2023-02-19T04:32:58;97534.13;;;-6.79;100.00
36600;BME280;35385;55.668;37.508;2023-02-19T04:33:58;97530.78;;;-6.81;100.00
36600;BME280;35385;55.668;37.508;2023-02-19T04:34:59;97522.47;;;-6.89;100.00
36600;BME280;35385;55.668;37.508;2023-02-19T04:35:59;97517.03;;;-7.01;100.00
36600;BME280;35385;55.668;37.508;2023-02-19T04:37:00;97479.00;;;-7.21;100.00
36600;BME280;35385;55.668;37.508;2023-02-19T04:38:01;97473.53;;;-7.15;100.00
36600;BME280;35385;55.668;37.508;2023-02-19T04:39:01;97532.59;;;-6.83;100.00
36600;BME280;35385;55.668;37.508;2023-02-19T04:40:02;97506.50;;;-6.98;100.00
36600;BME280;35385;55.668;37.508;2023-02-19T04:41:04;97527.66;;;-6.89;100.00
36600;BME280;35385;55.668;37.508;2023-02-19T04:42:04;97535.97;;;-6.81;100.00
36600;BME280;35385;55.668;37.508;2023-02-19T04:43:05;97537.66;;;-6.80;100.00
36600;BME280;35385;55.668;37.508;2023-02-19T04:44:05;97483.66;;;-7.09;100.00
36600;BME280;35385;55.668;37.508;2023-02-19T04:45:06;97528.44;;;-6.87;100.00
36600;BME280;35385;55.668;37.508;2023-02-19T04:46:07;97540.19;;;-6.97;100.00
36600;BME280;35385;55.668;37.508;2023-02-19T04:47:07;97542.53;;;-6.92;100.00
36600;BME280;35385;55.668;37.508;2023-02-19T04:48:08;97533.38;;;-6.81;100.00
36600;BME280;35385;55.668;37.508;2023-02-19T04:49:09;97530.91;;;-6.84;100.00
36600;BME280;35385;55.668;37.508;2023-02-19T04:50:09;97517.16;;;-6.86;100.00
36600;BME280;35385;55.668;37.508;2023-02-19T04:51:10;97516.38;;;-7.06;100.00
36600;BME280;35385;55.668;37.508;2023-02-19T04:52:11;97467.94;;;-7.25;100.00
36600;BME280;35385;55.668;37.508;2023-02-19T04:53:11;97513.31;;;-6.96;100.00
36600;BME280;35385;55.668;37.508;2023-02-19T04:54:12;97537.78;;;-6.83;100.00
36600;BME280;35385;55.668;37.508;2023-02-19T04:55:12;97519.81;;;-6.87;100.00
36600;BME280;35385;55.668;37.508;2023-02-19T04:56:14;97521.63;;;-6.70;100.00
36600;BME280;35385;55.668;37.508;2023-02-19T04:57:15;97520.91;;;-6.74;100.00
36600;BME280;35385;55.668;37.508;2023-02-19T04:58:15;97516.16;;;-6.83;100.00
36600;BME280;35385;55.668;37.508;2023-02-19T04:59:16;97500.47;;;-6.99;100.00
36600;BME280;35385;55.668;37.508;2023-02-19T05:00:17;97507.22;;;-6.95;100.00
36600;BME280;35385;55.668;37.508;2023-02-19T05:01:18;97523.81;;;-6.99;100.00
36600;BME280;35385;55.668;37.508;2023-02-19T05:02:18;97494.56;;;-7.02;100.00
36600;BME280;35385;55.668;37.508;2023-02-19T05:03:19;97506.84;;;-7.06;100.00
36600;BME280;35385;55.668;37.508;2023-02-19T05:04:19;97478.19;;;-7.22;100.00
36600;BME280;35385;55.668;37.508;2023-02-19T05:05:20;97517.78;;;-6.99;100.00
36600;BME280;35385;55.668;37.508;2023-02-19T05:06:20;97516.03;;;-6.99;100.00
36600;BME280;35385;55.668;37.508;2023-02-19T05:07:21;97523.69;;;-6.96;100.00
36600;BME280;35385;55.668;37.508;2023-02-19T05:08:21;97510.16;;;-7.02;100.00
36600;BME280;35385;55.668;37.508;2023-02-19T05:09:22;97456.66;;;-7.24;100.00
36600;BME280;35385;55.668;37.508;2023-02-19T05:10:22;97459.25;;;-7.24;100.00
36600;BME280;35385;55.668;37.508;2023-02-19T05:11:23;97502.28;;;-7.01;100.00
36600;BME280;35385;55.668;37.508;2023-02-19T05:12:24;97505.38;;;-6.93;100.00
36600;BME280;35385;55.668;37.508;2023-02-19T05:13:25;97513.44;;;-6.99;100.00
36600;BME280;35385;55.668;37.508;2023-02-19T05:14:26;97507.47;;;-7.01;100.00
36600;BME280;35385;55.668;37.508;2023-02-19T05:15:26;97450.91;;;-7.30;100.00
36600;BME280;35385;55.668;37.508;2023-02-19T05:16:27;97511.56;;;-6.95;100.00
36600;BME280;35385;55.668;37.508;2023-02-19T05:17:27;97513.97;;;-6.92;100.00
36600;BME280;35385;55.668;37.508;2023-02-19T05:18:29;97451.09;;;-7.35;100.00
36600;BME280;35385;55.668;37.508;2023-02-19T05:19:30;97508.66;;;-6.89;100.00
36600;BME280;35385;55.668;37.508;2023-02-19T05:20:30;97510.00;;;-6.81;100.00
36600;BME280;35385;55.668;37.508;2023-02-19T05:21:31;97507.88;;;-6.72;100.00
36600;BME280;35385;55.668;37.508;2023-02-19T05:22:31;97511.69;;;-6.80;100.00
36600;BME280;35385;55.668;37.508;2023-02-19T05:23:32;97491.63;;;-6.95;100.00
36600;BME280;35385;55.668;37.508;2023-02-19T05:24:34;97510.78;;;-6.79;100.00
36600;BME280;35385;55.668;37.508;2023-02-19T05:25:34;97519.09;;;-6.72;100.00
36600;BME280;35385;55.668;37.508;2023-02-19T05:26:35;97504.50;;;-6.74;100.00
36600;BME280;35385;55.668;37.508;2023-02-19T05:27:35;97501.97;;;-6.76;100.00
36600;BME280;35385;55.668;37.508;2023-02-19T05:28:36;97500.34;;;-6.96;100.00
36600;BME280;35385;55.668;37.508;2023-02-19T05:29:37;97503.34;;;-6.86;100.00
36600;BME280;35385;55.668;37.508;2023-02-19T05:30:37;97504.16;;;-6.86;100.00
36600;BME280;35385;55.668;37.508;2023-02-19T05:31:38;97504.75;;;-6.79;100.00
36600;BME280;35385;55.668;37.508;2023-02-19T05:32:38;97500.00;;;-6.71;100.00
36600;BME280;35385;55.668;37.508;2023-02-19T05:33:39;97438.00;;;-7.13;100.00
36600;BME280;35385;55.668;37.508;2023-02-19T05:34:42;97483.47;;;-6.87;100.00
36600;BME280;35385;55.668;37.508;2023-02-19T05:35:45;97506.13;;;-6.91;100.00
36600;BME280;35385;55.668;37.508;2023-02-19T05:36:45;97496.81;;;-6.95;100.00
36600;BME280;35385;55.668;37.508;2023-02-19T05:37:46;97486.44;;;-6.95;100.00
36600;BME280;35385;55.668;37.508;2023-02-19T05:38:47;97500.09;;;-6.91;100.00
36600;BME280;35385;55.668;37.508;2023-02-19T05:39:50;97496.25;;;-6.83;100.00
36600;BME280;35385;55.668;37.508;2023-02-19T05:40:51;97490.63;;;-6.92;100.00
36600;BME280;35385;55.668;37.508;2023-02-19T05:41:51;97496.38;;;-6.86;100.00
36600;BME280;35385;55.668;37.508;2023-02-19T05:42:52;97497.63;;;-6.75;100.00
36600;BME280;35385;55.668;37.508;2023-02-19T05:43:53;97500.56;;;-6.64;100.00
36600;BME280;35385;55.668;37.508;2023-02-19T05:44:53;97505.59;;;-6.61;100.00
36600;BME280;35385;55.668;37.508;2023-02-19T05:45:57;97499.22;;;-6.54;100.00
36600;BME280;35385;55.668;37.508;2023-02-19T05:46:57;97497.81;;;-6.61;100.00
36600;BME280;35385;55.668;37.508;2023-02-19T05:47:58;97491.94;;;-6.65;100.00
36600;BME280;35385;55.668;37.508;2023-02-19T05:48:59;97511.81;;;-6.64;100.00
36600;BME280;35385;55.668;37.508;2023-02-19T05:49:59;97491.25;;;-6.68;100.00
36600;BME280;35385;55.668;37.508;2023-02-19T05:51:08;97492.69;;;-6.63;100.00
36600;BME280;35385;55.668;37.508;2023-02-19T05:52:09;97483.91;;;-6.60;100.00
36600;BME280;35385;55.668;37.508;2023-02-19T05:53:10;97500.28;;;-6.41;100.00
36600;BME280;35385;55.668;37.508;2023-02-19T05:54:11;97500.59;;;-6.30;100.00
36600;BME280;35385;55.668;37.508;2023-02-19T05:55:12;97489.28;;;-6.46;100.00
36600;BME280;35385;55.668;37.508;2023-02-19T05:56:32;97501.06;;;-6.39;100.00
36600;BME280;35385;55.668;37.508;2023-02-19T05:57:45;97397.84;;;-7.06;100.00
36600;BME280;35385;55.668;37.508;2023-02-19T05:58:45;97480.38;;;-6.77;100.00